Covington, Michigan
Current Conditions -  °F | °C
As of 9:15 AM on Thursday 29 Jan 2015 (Local Time) from KLNL Reporting Station
Overcast Overcast  
Wind Chill: 17°   Ceiling: 1200
Heat Index: 28°   Visibility: 10mi
Dew Point: 24°   Wind: 14mph
Humidity: 85%   Direction: 340°NNW
Pressure: 29.87"   Gusts: 21mph
Location:  46.54°N, 88.54°W
Report Text: KLNL 291415Z AUTO 34012G18KT 10SM OVC012 M02/M04 A2987 RMK AO2 T10231045
Loading
Personal Weather Stations






























Interactive Weather Map New forecast layout! Learn more

10-Day Weather Forecast

Advertisements
Track Severe Weather on mobile